Huvudsida
METAR-TAF:

METAR-TAF

Flygplatser :

Iranshahr, Iran

latitud: 27-12N, longitud: 060-42E, höjd: 591 m

Aktuellt väderrapport

Denna rapport gjordes för 55 minuter sedan, klockan 03:00 UTC
Vind 6 kt från ost/nordost
Temperatur 16°C
Fuktighet 25%
Tryck 1015 hPa
Sikt 10 km eller mer
Få moln på en höjd av 4000 ft
Brutna moln på en höjd av 10000 ft

METAR: OIZI 200300Z 06006KT 9999 FEW040 BKN100 16/M04 Q1015

Tid: 07:25 (03:55 UTC)


TAF: saknas

Aktuella väderrapporter och prognoser från 4000 flygplatser (METAR- och TAF-rapporter).

De tillgängliga stationerna syns som gula och röda prickar på kartan.

För musen över prickarna för att se namnen på stationerna.

Klicka sedan för att få väderrapporter och prognoser.

För att ändra kartan: Klicka på de gröna knapparna med ett svart kors på för att zooma in; den gröna knappen med ett streck på för att zooma ut; eller på de gröna pilarna för angränsande kartor.


METAR-TAF: